createdAt,value
2017-10-16T00:00:05.378Z,11.40
2017-10-16T00:02:34.668Z,11.07
2017-10-16T00:05:03.919Z,11.03
2017-10-16T00:07:33.404Z,9.30
2017-10-16T00:10:02.683Z,9.70
2017-10-16T00:12:31.950Z,11.10
2017-10-16T00:15:01.447Z,9.83
2017-10-16T00:17:31.842Z,9.70
2017-10-16T00:20:01.127Z,9.77
2017-10-16T00:22:30.410Z,10.50
2017-10-16T00:24:59.692Z,10.70
2017-10-16T00:27:29.787Z,9.63
2017-10-16T00:29:59.050Z,10.70
2017-10-16T00:32:28.435Z,10.47
2017-10-16T00:34:58.548Z,8.80
2017-10-16T00:37:28.613Z,9.70
2017-10-16T00:39:57.890Z,11.73
2017-10-16T00:42:27.161Z,9.80
2017-10-16T00:44:56.451Z,10.10
2017-10-16T00:47:26.477Z,10.00
2017-10-16T00:49:55.913Z,10.10
2017-10-16T00:52:25.928Z,9.90
2017-10-16T00:54:55.207Z,11.37
2017-10-16T00:57:25.247Z,9.63
2017-10-16T00:59:54.505Z,11.20
2017-10-16T01:02:24.024Z,11.50
2017-10-16T01:04:53.435Z,13.50
2017-10-16T01:07:23.494Z,11.97
2017-10-16T01:09:52.766Z,12.03
2017-10-16T01:12:22.175Z,11.40
2017-10-16T01:14:52.195Z,12.47
2017-10-16T01:17:21.545Z,11.87
2017-10-16T01:19:50.805Z,12.43
2017-10-16T01:22:20.081Z,12.80
2017-10-16T01:24:49.383Z,12.37
2017-10-16T01:27:18.670Z,11.70
2017-10-16T01:29:47.951Z,13.27
2017-10-16T01:32:17.202Z,11.17
2017-10-16T01:34:46.513Z,13.57
2017-10-16T01:37:15.870Z,13.10
2017-10-16T01:39:45.129Z,12.70
2017-10-16T01:42:14.412Z,11.13
2017-10-16T01:44:43.694Z,12.90
2017-10-16T01:47:13.715Z,13.00
2017-10-16T01:49:43.138Z,12.23
2017-10-16T01:52:12.447Z,14.13
2017-10-16T01:54:41.714Z,14.63
2017-10-16T01:57:11.731Z,13.73
2017-10-16T01:59:41.032Z,14.10
2017-10-16T02:02:10.314Z,14.93
2017-10-16T02:04:39.575Z,16.60
2017-10-16T02:07:08.843Z,16.20
2017-10-16T02:09:39.170Z,13.90
2017-10-16T02:12:09.234Z,15.27
2017-10-16T02:14:38.580Z,16.87
2017-10-16T02:17:07.884Z,18.73
2017-10-16T02:19:37.298Z,18.30
2017-10-16T02:22:06.714Z,15.23
2017-10-16T02:24:36.750Z,15.13
2017-10-16T02:27:06.345Z,14.60
2017-10-16T02:29:35.600Z,14.00
2017-10-16T02:32:05.007Z,14.30
2017-10-16T02:34:34.282Z,14.97
2017-10-16T02:37:04.182Z,14.97
2017-10-16T02:39:33.444Z,16.60
2017-10-16T02:42:02.951Z,17.00
2017-10-16T02:44:32.979Z,16.57
2017-10-16T02:47:02.270Z,17.03
2017-10-16T02:49:31.538Z,18.00
2017-10-16T02:52:00.815Z,17.00
2017-10-16T02:54:30.066Z,19.00
2017-10-16T02:56:59.350Z,18.00
2017-10-16T02:59:28.601Z,18.93
2017-10-16T03:01:57.879Z,20.27
2017-10-16T03:04:27.183Z,18.40
2017-10-16T03:06:56.600Z,17.70
2017-10-16T03:09:25.848Z,19.17
2017-10-16T03:11:55.131Z,19.10
2017-10-16T03:14:24.381Z,19.33
2017-10-16T03:16:53.631Z,18.17
2017-10-16T03:19:22.925Z,18.73
2017-10-16T03:21:52.232Z,18.77
2017-10-16T03:24:21.476Z,18.13
2017-10-16T03:26:50.782Z,17.00
2017-10-16T03:29:20.834Z,17.70
2017-10-16T03:31:50.099Z,17.80
2017-10-16T03:34:19.356Z,17.87
2017-10-16T03:36:48.632Z,15.30
2017-10-16T03:39:18.092Z,17.13
2017-10-16T03:41:47.417Z,15.87
2017-10-16T03:44:17.445Z,16.27
2017-10-16T03:46:46.835Z,16.70
2017-10-16T03:49:16.871Z,16.30
2017-10-16T03:51:46.863Z,15.93
2017-10-16T03:54:16.125Z,18.10
2017-10-16T03:56:45.395Z,16.73
2017-10-16T03:59:14.653Z,17.77
2017-10-16T04:01:43.918Z,14.90
2017-10-16T04:04:13.170Z,14.63
2017-10-16T04:06:43.226Z,18.10
2017-10-16T04:09:12.591Z,15.07
2017-10-16T04:11:42.617Z,16.77
2017-10-16T04:14:11.896Z,17.37
2017-10-16T04:16:41.912Z,14.20
2017-10-16T04:19:11.186Z,15.97
2017-10-16T04:21:40.438Z,13.67
2017-10-16T04:24:09.722Z,14.07
2017-10-16T04:26:39.742Z,13.67
2017-10-16T04:29:09.022Z,15.43
2017-10-16T04:31:38.386Z,18.03
2017-10-16T04:34:07.658Z,16.47
2017-10-16T04:36:37.786Z,14.97
2017-10-16T04:39:07.921Z,16.13
2017-10-16T04:41:37.183Z,14.80
2017-10-16T04:44:06.462Z,14.43
2017-10-16T04:46:35.817Z,13.50
2017-10-16T04:49:05.085Z,13.00
2017-10-16T04:51:34.482Z,11.97
2017-10-16T04:54:03.780Z,13.33
2017-10-16T04:56:33.031Z,14.07
2017-10-16T04:59:03.174Z,11.80
2017-10-16T05:01:32.457Z,14.40
2017-10-16T05:04:01.785Z,16.83
2017-10-16T05:06:31.033Z,14.17
2017-10-16T05:09:01.058Z,13.87
2017-10-16T05:11:30.368Z,15.13
2017-10-16T05:13:59.682Z,15.13
2017-10-16T05:16:28.954Z,13.90
2017-10-16T05:18:58.209Z,13.70
2017-10-16T05:21:27.475Z,15.50
2017-10-16T05:23:57.490Z,15.33
2017-10-16T05:26:26.770Z,16.27
2017-10-16T05:28:57.396Z,13.20
2017-10-16T05:31:26.670Z,15.07
2017-10-16T05:33:56.029Z,14.27
2017-10-16T05:36:25.314Z,15.53
2017-10-16T05:38:54.822Z,14.50
2017-10-16T05:41:25.007Z,15.37
2017-10-16T05:43:54.286Z,14.07
2017-10-16T05:46:23.579Z,13.87
2017-10-16T05:48:52.841Z,14.60
2017-10-16T05:51:22.871Z,13.17
2017-10-16T05:53:52.153Z,11.33
2017-10-16T05:56:21.392Z,9.43
2017-10-16T05:58:50.737Z,12.30
2017-10-16T06:01:20.041Z,12.70
2017-10-16T06:03:49.342Z,10.93
2017-10-16T06:06:18.782Z,12.10
2017-10-16T06:08:48.849Z,10.63
2017-10-16T06:11:18.102Z,11.20
2017-10-16T06:13:47.502Z,11.40
2017-10-16T06:16:17.546Z,11.50
2017-10-16T06:18:46.887Z,10.37
2017-10-16T06:21:16.142Z,12.40
2017-10-16T06:23:45.559Z,9.77
2017-10-16T06:26:14.849Z,11.00
2017-10-16T06:28:44.854Z,11.10
2017-10-16T06:31:14.129Z,10.00
2017-10-16T06:33:44.912Z,10.77
2017-10-16T06:36:14.191Z,9.80
2017-10-16T06:38:43.590Z,8.90
2017-10-16T06:41:13.642Z,12.03
2017-10-16T06:43:42.906Z,12.10
2017-10-16T06:46:12.183Z,11.67
2017-10-16T06:48:41.498Z,11.70
2017-10-16T06:51:10.762Z,10.27
2017-10-16T06:53:40.221Z,10.70
2017-10-16T06:56:10.295Z,10.90
2017-10-16T06:58:39.584Z,10.60
2017-10-16T07:01:08.934Z,11.10
2017-10-16T07:03:38.219Z,9.57
2017-10-16T07:06:07.503Z,10.00
2017-10-16T07:08:36.762Z,9.80
2017-10-16T07:11:06.054Z,9.50
2017-10-16T07:13:35.333Z,8.90
2017-10-16T07:16:05.374Z,9.50
2017-10-16T07:18:34.651Z,9.27
2017-10-16T07:21:03.912Z,8.50
2017-10-16T07:23:33.181Z,8.73
2017-10-16T07:26:03.218Z,7.60
2017-10-16T07:28:32.694Z,6.63
2017-10-16T07:31:02.741Z,10.37
2017-10-16T07:33:32.129Z,11.00
2017-10-16T07:36:02.174Z,9.57
2017-10-16T07:38:31.437Z,8.07
2017-10-16T07:41:00.701Z,9.27
2017-10-16T07:43:29.991Z,8.50
2017-10-16T07:45:59.258Z,8.70
2017-10-16T07:48:28.511Z,8.40
2017-10-16T07:50:57.790Z,8.83
2017-10-16T07:53:27.130Z,8.90
2017-10-16T07:55:57.167Z,8.30
2017-10-16T07:58:26.522Z,10.03
2017-10-16T08:00:55.778Z,9.70
2017-10-16T08:03:25.097Z,9.07
2017-10-16T08:05:54.346Z,9.10
2017-10-16T08:08:25.126Z,9.27
2017-10-16T08:10:54.506Z,9.33
2017-10-16T08:13:24.562Z,9.37
2017-10-16T08:15:53.833Z,7.70
2017-10-16T08:18:23.219Z,9.23
2017-10-16T08:20:53.288Z,7.87
2017-10-16T08:23:22.642Z,18.73
2017-10-16T08:25:53.372Z,17.60
2017-10-16T08:28:23.447Z,27.97
2017-10-16T08:30:52.728Z,31.00
2017-10-16T08:33:21.988Z,14.60
2017-10-16T08:35:51.284Z,10.03
2017-10-16T08:38:20.702Z,10.60
2017-10-16T08:40:50.768Z,10.60
2017-10-16T08:43:20.026Z,7.37
2017-10-16T08:45:49.322Z,7.70
2017-10-16T08:48:18.723Z,7.60
2017-10-16T08:50:48.811Z,10.30
2017-10-16T08:53:18.147Z,8.47
2017-10-16T08:55:48.166Z,8.47
2017-10-16T08:58:18.213Z,10.30
2017-10-16T09:00:47.483Z,9.27
2017-10-16T09:03:16.758Z,8.73
2017-10-16T09:05:46.032Z,8.00
2017-10-16T09:08:15.299Z,8.27
2017-10-16T09:10:44.582Z,6.93
2017-10-16T09:13:13.850Z,7.93
2017-10-16T09:15:43.127Z,9.20
2017-10-16T09:18:12.407Z,9.40
2017-10-16T09:20:41.698Z,8.90
2017-10-16T09:23:11.823Z,9.23
2017-10-16T09:25:41.872Z,9.93
2017-10-16T09:28:12.071Z,10.80
2017-10-16T09:30:41.612Z,8.60
2017-10-16T09:33:10.810Z,7.50
2017-10-16T09:35:40.144Z,7.33
2017-10-16T09:38:09.428Z,8.70
2017-10-16T09:40:38.763Z,7.27
2017-10-16T09:43:08.083Z,8.60
2017-10-16T09:45:38.126Z,16.87
2017-10-16T09:48:07.402Z,21.40
2017-10-16T09:50:36.730Z,18.67
2017-10-16T09:53:05.994Z,16.80
2017-10-16T09:55:35.395Z,14.93
2017-10-16T09:58:05.446Z,14.37
2017-10-16T10:00:34.705Z,14.50
2017-10-16T10:03:03.970Z,13.30
2017-10-16T10:05:33.244Z,12.37
2017-10-16T10:08:02.544Z,12.50
2017-10-16T10:10:31.821Z,12.93
2017-10-16T10:13:01.879Z,10.97
2017-10-16T10:15:31.147Z,10.33
2017-10-16T10:18:00.423Z,11.37
2017-10-16T10:20:29.842Z,11.40
2017-10-16T10:23:00.492Z,9.10
2017-10-16T10:25:29.775Z,9.50
2017-10-16T10:27:59.026Z,7.90
2017-10-16T10:30:28.483Z,10.13
2017-10-16T10:32:58.516Z,9.80
2017-10-16T10:35:27.794Z,10.70
2017-10-16T10:37:57.199Z,11.37
2017-10-16T10:40:27.247Z,12.33
2017-10-16T10:42:56.540Z,13.70
2017-10-16T10:45:26.754Z,13.50
2017-10-16T10:47:56.827Z,12.27
2017-10-16T10:50:26.089Z,12.23
2017-10-16T10:52:55.372Z,10.87
2017-10-16T10:55:24.794Z,9.53
2017-10-16T10:57:54.806Z,9.63
2017-10-16T11:00:24.122Z,9.57
2017-10-16T11:02:53.365Z,9.13
2017-10-16T11:05:22.641Z,8.40
2017-10-16T11:07:51.913Z,9.90
2017-10-16T11:10:21.890Z,10.00
2017-10-16T11:12:51.154Z,9.30
2017-10-16T11:15:20.454Z,10.50
2017-10-16T11:17:49.754Z,10.67
2017-10-16T11:20:19.235Z,10.10
2017-10-16T11:22:48.523Z,8.83
2017-10-16T11:25:18.652Z,8.57
2017-10-16T11:27:48.686Z,8.30
2017-10-16T11:30:18.062Z,8.10
2017-10-16T11:32:48.369Z,9.00
2017-10-16T11:35:18.419Z,7.33
2017-10-16T11:37:47.814Z,10.07
2017-10-16T11:40:17.863Z,8.93
2017-10-16T11:42:47.234Z,8.63
2017-10-16T11:45:17.274Z,10.07
2017-10-16T11:47:46.552Z,9.13
2017-10-16T11:50:16.774Z,10.90
2017-10-16T11:52:46.064Z,8.87
2017-10-16T11:55:15.394Z,8.50
2017-10-16T11:57:44.746Z,10.70
2017-10-16T12:00:14.019Z,9.30
2017-10-16T12:02:43.594Z,9.60
2017-10-16T12:05:12.980Z,10.07
2017-10-16T12:07:42.362Z,10.07
2017-10-16T12:10:11.629Z,11.00
2017-10-16T12:12:40.930Z,9.77
2017-10-16T12:15:10.393Z,10.60
2017-10-16T12:17:40.522Z,10.80
2017-10-16T12:20:10.575Z,10.60
2017-10-16T12:22:40.030Z,11.63
2017-10-16T12:25:09.322Z,11.10
2017-10-16T12:27:39.578Z,11.77
2017-10-16T12:30:08.871Z,11.90
2017-10-16T12:32:38.378Z,11.80
2017-10-16T12:35:07.678Z,10.57
2017-10-16T12:37:37.714Z,10.93
2017-10-16T12:40:07.106Z,10.50
2017-10-16T12:42:36.407Z,8.67
2017-10-16T12:45:06.464Z,9.30
2017-10-16T12:47:35.786Z,9.37
2017-10-16T12:50:05.086Z,8.70
2017-10-16T12:52:34.366Z,9.47
2017-10-16T12:55:03.629Z,11.10
2017-10-16T12:57:33.010Z,11.20
2017-10-16T13:00:02.274Z,10.87
2017-10-16T13:02:31.543Z,11.73
2017-10-16T13:05:14.934Z,12.40
2017-10-16T13:07:44.369Z,13.13
2017-10-16T13:10:14.417Z,11.90
2017-10-16T13:12:43.674Z,12.90
2017-10-16T13:15:13.101Z,13.10
2017-10-16T13:17:42.391Z,11.43
2017-10-16T13:20:12.405Z,11.80
2017-10-16T13:22:41.687Z,12.17
2017-10-16T13:25:12.318Z,12.30
2017-10-16T13:27:41.611Z,11.90
2017-10-16T13:30:10.925Z,12.43
2017-10-16T13:32:40.198Z,13.60
2017-10-16T13:35:09.477Z,13.67
2017-10-16T13:37:38.872Z,13.33
2017-10-16T13:40:08.264Z,13.07
2017-10-16T13:42:37.616Z,13.50
2017-10-16T13:45:06.853Z,13.73
2017-10-16T13:47:36.128Z,11.90
2017-10-16T13:50:05.552Z,12.90
2017-10-16T13:52:35.647Z,12.30
2017-10-16T13:55:05.151Z,12.60
2017-10-16T13:57:34.451Z,11.20
2017-10-16T14:00:03.773Z,12.10
2017-10-16T14:02:33.065Z,11.80
2017-10-16T14:05:02.400Z,14.00
2017-10-16T14:07:32.450Z,11.83
2017-10-16T14:10:01.723Z,11.73
2017-10-16T14:12:31.022Z,13.20
2017-10-16T14:15:00.314Z,13.27
2017-10-16T14:17:29.616Z,13.67
2017-10-16T14:19:58.901Z,11.10
2017-10-16T14:22:28.822Z,14.00
2017-10-16T14:24:58.279Z,13.00
2017-10-16T14:27:27.576Z,14.20
2017-10-16T14:29:57.067Z,10.30
2017-10-16T14:32:26.388Z,12.57
2017-10-16T14:34:55.663Z,11.30
2017-10-16T14:37:25.942Z,11.47
2017-10-16T14:39:55.520Z,11.30
2017-10-16T14:42:24.822Z,14.07
2017-10-16T14:44:54.279Z,12.30
2017-10-16T14:47:24.321Z,12.60
2017-10-16T14:49:53.767Z,13.27
2017-10-16T14:52:23.076Z,13.67
2017-10-16T14:54:52.383Z,12.10
2017-10-16T14:57:21.747Z,13.40
2017-10-16T14:59:51.029Z,12.10
2017-10-16T15:02:22.188Z,14.07
2017-10-16T15:04:52.300Z,13.33
2017-10-16T15:07:21.628Z,12.60
2017-10-16T15:09:50.893Z,12.23
2017-10-16T15:12:20.175Z,12.00
2017-10-16T15:14:49.576Z,12.80
2017-10-16T15:17:18.903Z,11.40
2017-10-16T15:19:48.950Z,12.20
2017-10-16T15:22:18.227Z,11.30
2017-10-16T15:24:47.580Z,11.57
2017-10-16T15:27:16.879Z,12.50
2017-10-16T15:29:46.155Z,13.53
2017-10-16T15:32:16.270Z,22.00
2017-10-16T15:34:45.569Z,43.10
2017-10-16T15:37:14.849Z,152.83
2017-10-16T15:39:44.246Z,91.03
2017-10-16T15:42:14.331Z,25.60
2017-10-16T15:44:43.724Z,13.83
2017-10-16T15:47:13.053Z,11.93
2017-10-16T15:49:42.314Z,12.10
2017-10-16T15:52:11.778Z,11.90
2017-10-16T15:54:41.943Z,11.17
2017-10-16T15:57:11.233Z,10.60
2017-10-16T15:59:40.529Z,12.07
2017-10-16T16:02:09.834Z,11.37
2017-10-16T16:04:39.115Z,10.83
2017-10-16T16:07:08.399Z,11.80
2017-10-16T16:09:39.069Z,12.57
2017-10-16T16:12:08.519Z,11.10
2017-10-16T16:14:37.823Z,12.80
2017-10-16T16:17:07.267Z,10.23
2017-10-16T16:19:36.646Z,10.77
2017-10-16T16:22:05.934Z,10.30
2017-10-16T16:24:35.244Z,12.20
2017-10-16T16:27:04.513Z,12.60
2017-10-16T16:29:33.957Z,12.30
2017-10-16T16:32:03.998Z,13.40
2017-10-16T16:34:33.290Z,12.53
2017-10-16T16:37:02.597Z,12.53
2017-10-16T16:39:31.878Z,12.13
2017-10-16T16:42:01.395Z,13.00
2017-10-16T16:44:30.772Z,11.27
2017-10-16T16:46:59.996Z,9.77
2017-10-16T16:49:30.049Z,12.27
2017-10-16T16:51:59.318Z,11.70
2017-10-16T16:54:28.711Z,11.87
2017-10-16T16:56:59.646Z,11.47
2017-10-16T16:59:29.092Z,11.30
2017-10-16T17:01:58.366Z,12.40
2017-10-16T17:04:27.628Z,10.47
2017-10-16T17:06:56.938Z,12.17
2017-10-16T17:09:26.225Z,12.07
2017-10-16T17:11:55.537Z,9.50
2017-10-16T17:14:24.839Z,12.60
2017-10-16T17:16:55.637Z,12.40
2017-10-16T17:19:24.953Z,15.73
2017-10-16T17:21:54.203Z,13.77
2017-10-16T17:24:23.515Z,12.30
2017-10-16T17:26:52.794Z,11.37
2017-10-16T17:29:22.855Z,11.77
2017-10-16T17:31:52.154Z,10.80
2017-10-16T17:34:21.432Z,10.70
2017-10-16T17:36:55.807Z,11.40
2017-10-16T17:39:25.074Z,10.40
2017-10-16T17:41:54.550Z,11.13
2017-10-16T17:44:23.794Z,10.33
2017-10-16T17:46:53.055Z,11.17
2017-10-16T17:49:22.571Z,11.53
2017-10-16T17:51:52.609Z,11.40
2017-10-16T17:54:21.951Z,10.50
2017-10-16T17:56:51.218Z,11.40
2017-10-16T17:59:20.511Z,13.47
2017-10-16T18:01:49.779Z,11.80
2017-10-16T18:04:19.067Z,13.03
2017-10-16T18:06:48.394Z,11.87
2017-10-16T18:09:17.709Z,12.23
2017-10-16T18:11:47.014Z,12.23
2017-10-16T18:14:16.288Z,10.50
2017-10-16T18:16:45.579Z,12.10
2017-10-16T18:19:14.899Z,10.37
2017-10-16T18:21:44.164Z,10.67
2017-10-16T18:24:13.449Z,10.33
2017-10-16T18:26:42.775Z,10.33
2017-10-16T18:29:12.238Z,10.87
2017-10-16T18:31:41.716Z,10.70
2017-10-16T18:34:11.839Z,10.57
2017-10-16T18:36:41.882Z,11.07
2017-10-16T18:39:11.214Z,11.50
2017-10-16T18:41:41.277Z,10.47
2017-10-16T18:44:10.591Z,10.50
2017-10-16T18:46:39.854Z,10.30
2017-10-16T18:49:09.149Z,11.10
2017-10-16T18:51:38.423Z,12.30
2017-10-16T18:54:07.712Z,10.67
2017-10-16T18:56:36.987Z,10.07
2017-10-16T18:59:07.514Z,10.57
2017-10-16T19:01:37.555Z,11.00
2017-10-16T19:04:06.866Z,11.27
2017-10-16T19:06:36.149Z,11.20
2017-10-16T19:09:05.473Z,11.37
2017-10-16T19:11:34.854Z,10.80
2017-10-16T19:14:04.123Z,10.40
2017-10-16T19:16:34.210Z,10.27
2017-10-16T19:19:03.690Z,12.53
2017-10-16T19:21:32.988Z,10.13
2017-10-16T19:24:02.383Z,13.33
2017-10-16T19:26:31.706Z,10.80
2017-10-16T19:29:01.030Z,12.00
2017-10-16T19:31:30.415Z,10.03
2017-10-16T19:33:59.778Z,11.53
2017-10-16T19:36:29.160Z,10.97
2017-10-16T19:38:58.450Z,10.50
2017-10-16T19:41:27.719Z,11.27
2017-10-16T19:43:56.990Z,11.03
2017-10-16T19:46:26.283Z,10.70
2017-10-16T19:48:56.997Z,12.83
2017-10-16T19:51:26.295Z,11.37
2017-10-16T19:53:55.580Z,10.50
2017-10-16T19:56:24.918Z,11.40
2017-10-16T19:58:54.201Z,11.00
2017-10-16T20:01:23.522Z,10.50
2017-10-16T20:03:52.960Z,11.40
2017-10-16T20:06:23.384Z,13.10
2017-10-16T20:08:52.696Z,10.20
2017-10-16T20:11:21.984Z,10.27
2017-10-16T20:13:51.259Z,11.10
2017-10-16T20:16:20.524Z,10.60
2017-10-16T20:18:49.823Z,11.10
2017-10-16T20:21:19.477Z,10.50
2017-10-16T20:23:49.414Z,10.47
2017-10-16T20:26:18.694Z,11.80
2017-10-16T20:28:48.739Z,10.60
2017-10-16T20:31:18.118Z,10.07
2017-10-16T20:33:47.414Z,10.80
2017-10-16T20:36:17.583Z,9.47
2017-10-16T20:38:46.915Z,9.90
2017-10-16T20:41:16.277Z,10.97
2017-10-16T20:43:45.553Z,9.97
2017-10-16T20:46:14.839Z,11.27
2017-10-16T20:48:44.119Z,10.50
2017-10-16T20:51:14.125Z,14.33
2017-10-16T20:53:43.422Z,10.63
2017-10-16T20:56:12.723Z,11.53
2017-10-16T20:58:41.976Z,9.97
2017-10-16T21:01:12.038Z,10.57
2017-10-16T21:03:41.302Z,10.77
2017-10-16T21:06:10.635Z,11.03
2017-10-16T21:08:41.470Z,10.00
2017-10-16T21:11:10.769Z,10.90
2017-10-16T21:13:40.069Z,10.73
2017-10-16T21:16:09.366Z,10.03
2017-10-16T21:18:39.414Z,11.00
2017-10-16T21:21:08.695Z,11.63
2017-10-16T21:23:38.015Z,11.10
2017-10-16T21:26:07.572Z,10.00
2017-10-16T21:28:36.858Z,10.80
2017-10-16T21:31:06.122Z,11.07
2017-10-16T21:33:35.512Z,11.87
2017-10-16T21:36:05.466Z,11.87
2017-10-16T21:38:34.730Z,11.13
2017-10-16T21:41:04.222Z,10.33
2017-10-16T21:43:34.265Z,11.63
2017-10-16T21:46:03.546Z,11.10
2017-10-16T21:48:32.967Z,11.83
2017-10-16T21:51:02.265Z,12.43
2017-10-16T21:53:31.574Z,11.40
2017-10-16T21:56:00.830Z,11.97
2017-10-16T21:58:30.902Z,11.50
2017-10-16T22:01:00.209Z,11.70
2017-10-16T22:03:29.566Z,10.17
2017-10-16T22:05:59.714Z,11.27
2017-10-16T22:08:28.999Z,10.80
2017-10-16T22:10:58.309Z,10.87
2017-10-16T22:13:27.593Z,9.87
2017-10-16T22:15:57.639Z,10.63
2017-10-16T22:18:26.909Z,9.93
2017-10-16T22:20:56.182Z,10.80
2017-10-16T22:23:25.479Z,12.03
2017-10-16T22:25:54.767Z,10.20
2017-10-16T22:28:24.035Z,12.10
2017-10-16T22:30:53.372Z,10.97
2017-10-16T22:33:22.900Z,11.50
2017-10-16T22:35:52.202Z,11.43
2017-10-16T22:38:21.513Z,12.63
2017-10-16T22:40:50.819Z,12.13
2017-10-16T22:43:20.096Z,10.93
2017-10-16T22:45:49.534Z,12.37
2017-10-16T22:48:18.886Z,10.63
2017-10-16T22:50:51.810Z,11.60
2017-10-16T22:53:21.960Z,11.30
2017-10-16T22:55:51.250Z,12.03
2017-10-16T22:58:21.298Z,12.37
2017-10-16T23:00:50.587Z,12.53
2017-10-16T23:03:19.868Z,12.23
2017-10-16T23:05:49.184Z,12.13
2017-10-16T23:08:18.543Z,10.90
2017-10-16T23:10:48.635Z,12.30
2017-10-16T23:13:18.670Z,12.23
2017-10-16T23:15:47.947Z,12.07
2017-10-16T23:18:17.248Z,12.00
2017-10-16T23:20:46.502Z,11.67
2017-10-16T23:23:16.548Z,11.10
2017-10-16T23:25:45.962Z,10.93
2017-10-16T23:28:15.959Z,13.17
2017-10-16T23:30:45.280Z,12.17
2017-10-16T23:33:14.546Z,10.53
2017-10-16T23:35:43.826Z,10.97
2017-10-16T23:38:13.084Z,11.40
2017-10-16T23:40:42.380Z,11.40
2017-10-16T23:43:11.687Z,10.00
2017-10-16T23:45:41.772Z,11.90
2017-10-16T23:48:11.891Z,8.97
2017-10-16T23:50:41.915Z,11.50
2017-10-16T23:53:11.209Z,10.10
2017-10-16T23:55:40.516Z,10.50
2017-10-16T23:58:09.917Z,11.60
